首页
METAR-TAF:

METAR-TAF

机场 :

Earlton, 安大略省, 加拿大

纬度: 47-42N, 经度: 079-51W, 海拔: 243米

当前天气观测

该预报发布于35分钟前的20:00 UTC
风速10节,风向北转西北
温度 13°C
湿度 82%
气压 1010 hPa
能見度: 14.5公里
多云层高于2300英尺
阴天层高于2900英尺
小雨

METAR: CYXR 292000Z AUTO 34010KT 9SM -RA BKN023 OVC029 13/10 A2982 RMK SLP103 DENSITY ALT 800FT

时间: 16:35 (20:35 UTC)

预报

该预报发布于3小时和5分钟前的17:30 UTC
预报有效从29日的 18点(UTC)到 29日的 24点(UTC)
风速12节,风向
能見度: 10公里
少量云层高于1200英尺
多云层高于4000英尺
短暂存在
从 29日的 18点(UTC)到 29日的 24点(UTC)
多云层高于1200英尺
成为
从 29日的 20点(UTC)到 29日的 22点(UTC)
风速5节,风向东转东北

TAF: CYXR 291730Z 2918/2924 36012KT P6SM FEW012 BKN040 TEMPO 2918/2924 BKN012 BECMG 2920/2922 06005KT RMK FCST BASED ON AUTO OBS. NXT FCST WILL BE ISSUED AT 301145Z

超过4000个机场的气象观测和天气预报(METAR&TAF报告)。

可查询的气象台以黄色和红色小点在地图上表示。

将鼠标移到小点上方,可查看气象台名称。

然后点击查看天气观测和预报。

如需切换地图:点击带黑十字的绿色按钮放大地图;点击带横线的绿色按钮缩小地图;或者点击绿色箭头查看邻近地区的地图。


METAR-TAF: